createdAt,value
2023-04-28T00:01:28.448Z,47.97
2023-04-28T00:03:58.099Z,48.14
2023-04-28T00:06:26.945Z,47.95
2023-04-28T00:08:55.408Z,48.16
2023-04-28T00:11:23.828Z,47.69
2023-04-28T00:13:53.564Z,48.06
2023-04-28T00:16:22.034Z,47.88
2023-04-28T00:18:51.128Z,47.88
2023-04-28T00:21:19.497Z,47.76
2023-04-28T00:23:47.859Z,48.19
2023-04-28T00:26:16.165Z,48.35
2023-04-28T00:28:45.161Z,48.13
2023-04-28T00:31:16.662Z,48.33
2023-04-28T00:33:46.220Z,48.63
2023-04-28T00:36:14.636Z,49.04
2023-04-28T00:38:43.075Z,48.65
2023-04-28T00:41:11.782Z,49.18
2023-04-28T00:43:48.254Z,49.02
2023-04-28T00:46:24.142Z,49.14
2023-04-28T00:48:53.246Z,48.75
2023-04-28T00:51:21.778Z,49.01
2023-04-28T00:53:50.188Z,49.18
2023-04-28T00:56:18.949Z,49.18
2023-04-28T00:58:47.317Z,49.17
2023-04-28T01:01:17.205Z,49.42
2023-04-28T01:03:46.284Z,49.54
2023-04-28T01:06:16.050Z,49.48
2023-04-28T01:08:44.985Z,49.27
2023-04-28T01:11:17.298Z,49.33
2023-04-28T01:14:20.961Z,49.22
2023-04-28T01:16:50.942Z,49.08
2023-04-28T01:19:23.410Z,49.17
2023-04-28T01:21:53.408Z,48.97
2023-04-28T01:24:24.453Z,49.00
2023-04-28T01:26:52.877Z,48.94
2023-04-28T01:29:21.286Z,49.07
2023-04-28T01:31:49.817Z,49.07
2023-04-28T01:34:19.006Z,48.85
2023-04-28T01:36:47.380Z,48.89
2023-04-28T01:39:16.720Z,49.50
2023-04-28T01:41:46.518Z,48.92
2023-04-28T01:44:15.304Z,48.93
2023-04-28T01:46:43.896Z,49.14
2023-04-28T01:49:12.302Z,49.50
2023-04-28T01:51:43.014Z,49.43
2023-04-28T01:54:11.842Z,49.32
2023-04-28T01:56:41.304Z,49.81
2023-04-28T01:59:11.173Z,49.88
2023-04-28T02:01:39.755Z,50.31
2023-04-28T02:04:08.365Z,51.54
2023-04-28T02:06:38.683Z,51.26
2023-04-28T02:09:07.256Z,51.74
2023-04-28T02:11:35.667Z,51.87
2023-04-28T02:14:04.066Z,52.42
2023-04-28T02:16:34.757Z,53.12
2023-04-28T02:19:03.285Z,54.33
2023-04-28T02:21:31.946Z,53.70
2023-04-28T02:24:00.756Z,54.69
2023-04-28T02:26:29.233Z,54.28
2023-04-28T02:28:57.601Z,56.00
2023-04-28T02:31:26.149Z,56.48
2023-04-28T02:33:57.140Z,56.29
2023-04-28T02:36:25.940Z,55.80
2023-04-28T02:38:54.326Z,55.35
2023-04-28T02:41:23.145Z,56.64
2023-04-28T02:43:51.648Z,56.50
2023-04-28T02:46:20.233Z,55.43
2023-04-28T02:48:48.719Z,56.68
2023-04-28T02:51:18.480Z,57.77
2023-04-28T02:53:47.126Z,57.44
2023-04-28T02:56:15.597Z,57.17
2023-04-28T02:58:44.095Z,56.88
2023-04-28T03:01:12.472Z,57.92
2023-04-28T03:03:41.182Z,58.17
2023-04-28T03:06:09.710Z,57.68
2023-04-28T03:08:39.590Z,57.37
2023-04-28T03:11:08.129Z,57.98
2023-04-28T03:13:36.651Z,58.61
2023-04-28T03:16:07.944Z,58.71
2023-04-28T03:18:36.681Z,58.93
2023-04-28T03:21:06.152Z,59.79
2023-04-28T03:23:34.660Z,59.78
2023-04-28T03:26:05.813Z,59.99
2023-04-28T03:28:34.472Z,59.82
2023-04-28T03:31:03.551Z,60.16
2023-04-28T03:33:32.455Z,59.77
2023-04-28T03:36:01.916Z,58.87
2023-04-28T03:38:30.737Z,59.33
2023-04-28T03:40:59.130Z,59.23
2023-04-28T03:43:41.117Z,59.32
2023-04-28T03:46:16.242Z,59.87
2023-04-28T03:48:46.196Z,59.36
2023-04-28T03:51:15.111Z,59.40
2023-04-28T03:53:43.663Z,59.43
2023-04-28T03:56:12.206Z,59.93
2023-04-28T03:58:42.512Z,60.54
2023-04-28T04:01:10.918Z,60.40
2023-04-28T04:03:39.815Z,60.67
2023-04-28T04:06:08.877Z,60.98
2023-04-28T04:08:37.768Z,61.20
2023-04-28T04:11:06.383Z,60.46
2023-04-28T04:13:34.743Z,60.84
2023-04-28T04:16:09.196Z,61.00
2023-04-28T04:18:37.763Z,61.28
2023-04-28T04:21:32.967Z,61.74
2023-04-28T04:24:01.566Z,62.44
2023-04-28T04:26:30.236Z,62.26
2023-04-28T04:28:59.003Z,62.53
2023-04-28T04:31:28.856Z,62.88
2023-04-28T04:33:58.507Z,63.84
2023-04-28T04:36:27.515Z,63.75
2023-04-28T04:38:55.992Z,63.99
2023-04-28T04:41:24.771Z,64.85
2023-04-28T04:44:02.534Z,63.99
2023-04-28T04:46:39.719Z,64.00
2023-04-28T04:49:08.286Z,64.25
2023-04-28T04:51:38.075Z,63.79
2023-04-28T04:54:08.915Z,64.00
2023-04-28T04:56:39.209Z,63.91
2023-04-28T04:59:08.052Z,64.57
2023-04-28T05:01:46.559Z,64.36
2023-04-28T05:04:15.121Z,64.15
2023-04-28T05:06:43.913Z,65.27
2023-04-28T05:09:12.879Z,65.88
2023-04-28T05:11:42.074Z,67.80
2023-04-28T05:14:10.578Z,67.62
2023-04-28T05:16:40.780Z,68.09
2023-04-28T05:19:18.284Z,68.16
2023-04-28T05:21:48.066Z,69.23
2023-04-28T05:24:16.960Z,69.61
2023-04-28T05:26:45.614Z,69.27
2023-04-28T05:29:14.224Z,69.68
2023-04-28T05:31:42.804Z,69.95
2023-04-28T05:34:11.373Z,71.14
2023-04-28T05:36:41.812Z,71.21
2023-04-28T05:39:12.491Z,70.75
2023-04-28T05:41:42.306Z,71.19
2023-04-28T05:44:11.180Z,70.89
2023-04-28T05:46:39.727Z,70.68
2023-04-28T05:49:08.279Z,71.62
2023-04-28T05:51:40.493Z,71.37
2023-04-28T05:54:08.994Z,71.71
2023-04-28T05:56:43.278Z,72.22
2023-04-28T05:59:12.001Z,72.85
2023-04-28T06:01:40.561Z,71.99
2023-04-28T06:04:09.363Z,72.86
2023-04-28T06:06:38.216Z,72.91
2023-04-28T06:09:08.280Z,73.32
2023-04-28T06:11:36.803Z,73.79
2023-04-28T06:14:05.227Z,73.99
2023-04-28T06:16:33.681Z,73.76
2023-04-28T06:19:02.381Z,73.56
2023-04-28T06:21:32.378Z,74.73
2023-04-28T06:24:01.984Z,74.58
2023-04-28T06:26:32.082Z,75.84
2023-04-28T06:29:00.637Z,76.47
2023-04-28T06:31:31.319Z,76.32
2023-04-28T06:33:59.689Z,76.44
2023-04-28T06:36:28.340Z,76.17
2023-04-28T06:38:56.936Z,77.14
2023-04-28T06:41:25.310Z,76.83
2023-04-28T06:43:56.318Z,77.42
2023-04-28T06:46:31.927Z,77.03
2023-04-28T06:49:00.338Z,76.73
2023-04-28T06:51:29.153Z,77.39
2023-04-28T06:53:57.566Z,76.85
2023-04-28T06:56:25.989Z,77.37
2023-04-28T06:58:57.016Z,77.25
2023-04-28T07:01:25.491Z,76.84
2023-04-28T07:03:53.987Z,77.73
2023-04-28T07:06:22.451Z,77.48
2023-04-28T07:08:50.932Z,77.77
2023-04-28T07:11:19.332Z,78.31
2023-04-28T07:13:49.506Z,78.93
2023-04-28T07:16:19.511Z,78.96
2023-04-28T07:18:47.851Z,79.25
2023-04-28T07:21:16.288Z,79.87
2023-04-28T07:23:45.940Z,79.91
2023-04-28T07:26:16.380Z,78.86
2023-04-28T07:28:45.938Z,78.98
2023-04-28T07:31:14.432Z,78.11
2023-04-28T07:33:44.228Z,78.53
2023-04-28T07:36:12.760Z,79.17
2023-04-28T07:38:41.136Z,78.82
2023-04-28T07:41:11.165Z,78.46
2023-04-28T07:43:40.550Z,78.09
2023-04-28T07:46:09.962Z,77.74
2023-04-28T07:48:38.885Z,78.86
2023-04-28T07:51:08.661Z,78.13
2023-04-28T07:53:37.832Z,78.06
2023-04-28T07:56:06.802Z,78.61
2023-04-28T07:58:35.240Z,78.14
2023-04-28T08:01:03.666Z,77.26
2023-04-28T08:03:32.322Z,77.41
2023-04-28T08:06:01.871Z,78.39
2023-04-28T08:08:32.384Z,77.71
2023-04-28T08:11:00.750Z,78.20
2023-04-28T08:13:29.533Z,78.29
2023-04-28T08:15:58.139Z,78.29
2023-04-28T08:18:27.097Z,77.43
2023-04-28T08:20:55.871Z,77.38
2023-04-28T08:23:28.209Z,77.20
2023-04-28T08:25:58.019Z,77.26
2023-04-28T08:28:26.438Z,77.66
2023-04-28T08:30:55.618Z,76.68
2023-04-28T08:33:24.394Z,77.69
2023-04-28T08:35:52.859Z,77.57
2023-04-28T08:38:24.104Z,78.04
2023-04-28T08:40:52.705Z,78.03
2023-04-28T08:43:22.516Z,77.74
2023-04-28T08:45:51.160Z,78.25
2023-04-28T08:48:22.206Z,78.22
2023-04-28T08:50:53.461Z,78.78
2023-04-28T08:53:26.558Z,79.68
2023-04-28T08:55:58.156Z,78.32
2023-04-28T08:58:28.873Z,78.73
2023-04-28T09:00:57.295Z,77.94
2023-04-28T09:03:25.716Z,77.64
2023-04-28T09:05:54.270Z,77.31
2023-04-28T09:08:22.670Z,78.64
2023-04-28T09:11:09.331Z,78.47
2023-04-28T09:13:40.058Z,77.12
2023-04-28T09:16:09.113Z,76.99
2023-04-28T09:18:37.693Z,77.46
2023-04-28T09:21:08.471Z,76.04
2023-04-28T09:23:48.541Z,75.51
2023-04-28T09:26:16.934Z,75.27
2023-04-28T09:28:46.769Z,75.08
2023-04-28T09:31:25.583Z,74.15
2023-04-28T09:34:00.683Z,74.20
2023-04-28T09:36:30.806Z,74.41
2023-04-28T09:39:00.353Z,74.27
2023-04-28T09:41:39.755Z,74.19
2023-04-28T09:44:19.215Z,74.09
2023-04-28T09:46:49.000Z,73.41
2023-04-28T09:49:17.387Z,73.11
2023-04-28T09:51:46.184Z,72.54
2023-04-28T09:54:15.227Z,72.69
2023-04-28T09:56:48.616Z,73.15
2023-04-28T09:59:18.588Z,74.09
2023-04-28T10:01:47.503Z,74.03
2023-04-28T10:04:16.918Z,73.75
2023-04-28T10:06:46.073Z,73.24
2023-04-28T10:09:14.948Z,73.01
2023-04-28T10:11:43.498Z,73.25
2023-04-28T10:14:12.537Z,72.97
2023-04-28T10:16:43.410Z,73.71
2023-04-28T10:19:12.621Z,73.25
2023-04-28T10:21:53.767Z,72.88
2023-04-28T10:24:29.462Z,73.25
2023-04-28T10:27:09.334Z,71.99
2023-04-28T10:29:38.280Z,70.80
2023-04-28T10:32:26.355Z,70.15
2023-04-28T10:34:55.222Z,68.79
2023-04-28T10:38:05.187Z,68.79
2023-04-28T10:40:34.615Z,67.45
2023-04-28T10:43:04.180Z,64.72
2023-04-28T10:46:06.138Z,64.83
2023-04-28T10:49:00.538Z,63.89
2023-04-28T10:51:36.210Z,63.75
2023-04-28T10:54:28.228Z,63.80
2023-04-28T10:57:22.941Z,64.75
2023-04-28T10:59:52.369Z,62.80
2023-04-28T11:02:44.418Z,61.57
2023-04-28T11:05:20.878Z,60.67
2023-04-28T11:08:37.917Z,59.92
2023-04-28T11:11:25.030Z,59.49
2023-04-28T11:13:54.969Z,60.92
2023-04-28T11:16:27.648Z,59.47
2023-04-28T11:19:05.731Z,61.79
2023-04-28T11:21:35.635Z,61.96
2023-04-28T11:24:12.697Z,62.55
2023-04-28T11:26:41.472Z,63.02
2023-04-28T11:29:10.692Z,63.98
2023-04-28T11:31:39.832Z,64.26
2023-04-28T11:34:14.399Z,64.03
2023-04-28T11:36:44.299Z,64.53
2023-04-28T11:39:15.407Z,64.20
2023-04-28T11:41:45.466Z,64.10
2023-04-28T11:44:16.000Z,63.30
2023-04-28T11:46:51.038Z,63.35
2023-04-28T11:49:20.715Z,62.87
2023-04-28T11:51:50.573Z,63.18
2023-04-28T11:54:24.609Z,63.26
2023-04-28T11:56:54.111Z,63.98
2023-04-28T11:59:27.467Z,63.02
2023-04-28T12:01:59.457Z,61.44
2023-04-28T12:04:31.906Z,60.62
2023-04-28T12:07:07.894Z,60.21
2023-04-28T12:09:36.827Z,60.91
2023-04-28T12:12:07.393Z,60.83
2023-04-28T12:14:56.397Z,60.44
2023-04-28T12:17:26.745Z,60.55
2023-04-28T12:19:55.417Z,60.14
2023-04-28T12:22:26.061Z,60.37
2023-04-28T12:25:08.484Z,60.42
2023-04-28T12:27:39.250Z,60.37
2023-04-28T12:30:26.030Z,60.97
2023-04-28T12:32:56.202Z,61.06
2023-04-28T12:35:25.874Z,60.66
2023-04-28T12:37:56.960Z,60.04
2023-04-28T12:40:26.202Z,59.46
2023-04-28T12:42:54.834Z,60.33
2023-04-28T12:45:23.359Z,60.76
2023-04-28T12:47:52.426Z,60.46
2023-04-28T12:50:21.514Z,59.86
2023-04-28T12:52:49.994Z,59.96
2023-04-28T12:55:20.068Z,59.85
2023-04-28T12:57:48.528Z,59.75
2023-04-28T13:00:18.071Z,59.99
2023-04-28T13:02:46.642Z,60.16
2023-04-28T13:05:15.514Z,59.56
2023-04-28T13:07:45.249Z,59.89
2023-04-28T13:10:13.899Z,59.59
2023-04-28T13:12:43.679Z,59.48
2023-04-28T13:15:13.125Z,58.97
2023-04-28T13:17:41.550Z,59.67
2023-04-28T13:20:11.671Z,59.05
2023-04-28T13:22:40.415Z,58.91
2023-04-28T13:25:10.297Z,59.13
2023-04-28T13:27:40.115Z,59.46
2023-04-28T13:30:13.386Z,59.16
2023-04-28T13:32:41.777Z,59.85
2023-04-28T13:35:10.664Z,60.05
2023-04-28T13:37:42.655Z,59.65
2023-04-28T13:40:12.612Z,59.69
2023-04-28T13:42:41.100Z,59.47
2023-04-28T13:45:12.099Z,60.33
2023-04-28T13:47:40.650Z,60.59
2023-04-28T13:50:09.957Z,60.79
2023-04-28T13:52:38.386Z,60.91
2023-04-28T13:55:07.375Z,61.00
2023-04-28T13:57:35.860Z,60.97
2023-04-28T14:00:05.089Z,60.94
2023-04-28T14:02:37.540Z,61.65
2023-04-28T14:05:07.300Z,61.69
2023-04-28T14:07:35.905Z,61.87
2023-04-28T14:10:06.142Z,62.34
2023-04-28T14:12:34.595Z,63.46
2023-04-28T14:15:02.981Z,64.54
2023-04-28T14:17:34.790Z,64.05
2023-04-28T14:20:05.905Z,64.46
2023-04-28T14:22:34.237Z,64.71
2023-04-28T14:25:02.682Z,65.10
2023-04-28T14:27:31.188Z,65.54
2023-04-28T14:29:59.584Z,66.03
2023-04-28T14:32:27.991Z,66.89
2023-04-28T14:34:56.407Z,67.16
2023-04-28T14:37:26.864Z,67.74
2023-04-28T14:39:55.286Z,68.52
2023-04-28T14:42:24.324Z,67.92
2023-04-28T14:44:54.464Z,67.86
2023-04-28T14:47:23.129Z,68.72
2023-04-28T14:49:53.436Z,68.23
2023-04-28T14:52:22.444Z,66.86
2023-04-28T14:54:52.299Z,67.02
2023-04-28T14:57:21.289Z,67.25
2023-04-28T14:59:51.806Z,67.05
2023-04-28T15:02:21.757Z,66.87
2023-04-28T15:04:50.524Z,67.13
2023-04-28T15:07:19.454Z,66.93
2023-04-28T15:09:47.903Z,67.20
2023-04-28T15:12:17.723Z,66.82
2023-04-28T15:14:46.258Z,67.01
2023-04-28T15:17:14.690Z,66.63
2023-04-28T15:19:43.069Z,67.06
2023-04-28T15:22:11.453Z,67.10
2023-04-28T15:24:39.803Z,66.59
2023-04-28T15:27:08.611Z,66.98
2023-04-28T15:29:38.733Z,67.40
2023-04-28T15:32:07.906Z,67.42
2023-04-28T15:34:36.655Z,67.23
2023-04-28T15:37:40.398Z,67.32
2023-04-28T15:40:11.783Z,66.97
2023-04-28T15:42:42.229Z,66.41
2023-04-28T15:45:13.378Z,66.95
2023-04-28T15:47:42.676Z,66.73
2023-04-28T15:50:12.289Z,66.36
2023-04-28T15:52:45.992Z,67.20
2023-04-28T15:55:15.284Z,67.43
2023-04-28T15:57:44.567Z,67.93
2023-04-28T16:00:16.529Z,67.67
2023-04-28T16:02:46.181Z,67.94
2023-04-28T16:05:14.868Z,68.02
2023-04-28T16:07:44.485Z,68.07
2023-04-28T16:10:15.349Z,68.02
2023-04-28T16:12:44.515Z,67.58
2023-04-28T16:15:14.916Z,68.35
2023-04-28T16:17:44.356Z,68.19
2023-04-28T16:20:13.241Z,68.50
2023-04-28T16:22:42.697Z,68.07
2023-04-28T16:25:12.087Z,67.95
2023-04-28T16:27:41.841Z,68.27
2023-04-28T16:30:11.393Z,68.38
2023-04-28T16:32:41.357Z,68.18
2023-04-28T16:35:15.127Z,68.06
2023-04-28T16:37:44.512Z,68.13
2023-04-28T16:40:14.367Z,68.21
2023-04-28T16:42:43.553Z,68.62
2023-04-28T16:45:15.921Z,67.98
2023-04-28T16:47:46.847Z,68.42
2023-04-28T16:50:15.713Z,68.57
2023-04-28T16:52:44.107Z,68.73
2023-04-28T16:55:12.593Z,68.49
2023-04-28T16:57:41.394Z,68.46
2023-04-28T17:00:12.150Z,68.07
2023-04-28T17:02:40.776Z,67.82
2023-04-28T17:05:11.594Z,68.17
2023-04-28T17:07:40.100Z,68.42
2023-04-28T17:10:09.929Z,68.23
2023-04-28T17:12:39.464Z,68.03
2023-04-28T17:15:09.630Z,67.97
2023-04-28T17:17:38.101Z,67.73
2023-04-28T17:20:07.928Z,68.30
2023-04-28T17:22:37.794Z,68.45
2023-04-28T17:25:07.655Z,68.88
2023-04-28T17:27:36.353Z,68.70
2023-04-28T17:30:06.307Z,69.24
2023-04-28T17:32:36.625Z,69.61
2023-04-28T17:35:05.578Z,69.18
2023-04-28T17:37:35.388Z,69.60
2023-04-28T17:40:05.746Z,69.56
2023-04-28T17:42:34.115Z,70.37
2023-04-28T17:45:02.457Z,70.59
2023-04-28T17:47:30.897Z,71.53
2023-04-28T17:49:59.420Z,71.78
2023-04-28T17:52:27.807Z,71.01
2023-04-28T17:54:57.407Z,71.14
2023-04-28T17:57:27.261Z,71.18
2023-04-28T17:59:55.644Z,71.92
2023-04-28T18:02:24.133Z,72.28
2023-04-28T18:04:52.746Z,72.39
2023-04-28T18:07:21.357Z,72.38
2023-04-28T18:09:49.898Z,72.18
2023-04-28T18:12:18.610Z,72.61
2023-04-28T18:14:50.481Z,72.75
2023-04-28T18:17:19.129Z,72.59
2023-04-28T18:19:51.353Z,72.95
2023-04-28T18:22:19.777Z,73.14
2023-04-28T18:24:48.609Z,72.86
2023-04-28T18:27:17.076Z,73.33
2023-04-28T18:29:47.070Z,73.27
2023-04-28T18:32:15.399Z,72.86
2023-04-28T18:34:44.582Z,72.85
2023-04-28T18:37:12.938Z,73.19
2023-04-28T18:39:41.326Z,73.30
2023-04-28T18:42:10.891Z,73.31
2023-04-28T18:44:39.342Z,73.80
2023-04-28T18:47:09.044Z,73.95
2023-04-28T18:49:38.146Z,74.24
2023-04-28T18:52:06.583Z,74.28
2023-04-28T18:54:35.763Z,74.67
2023-04-28T18:57:05.076Z,74.61
2023-04-28T18:59:33.761Z,74.29
2023-04-28T19:02:04.269Z,74.29
2023-04-28T19:04:34.367Z,74.45
2023-04-28T19:07:02.922Z,74.24
2023-04-28T19:09:31.291Z,74.47
2023-04-28T19:11:59.639Z,74.21
2023-04-28T19:14:28.032Z,73.33
2023-04-28T19:16:56.538Z,73.22
2023-04-28T19:19:25.009Z,72.99
2023-04-28T19:21:54.925Z,73.09
2023-04-28T19:24:23.545Z,73.34
2023-04-28T19:26:51.922Z,73.07
2023-04-28T19:29:20.477Z,73.40
2023-04-28T19:31:49.770Z,72.98
2023-04-28T19:34:18.307Z,72.38
2023-04-28T19:36:46.670Z,72.52
2023-04-28T19:39:16.466Z,72.62
2023-04-28T19:41:44.871Z,74.41
2023-04-28T19:44:13.237Z,75.36
2023-04-28T19:46:42.568Z,75.92
2023-04-28T19:49:12.548Z,76.63
2023-04-28T19:51:40.957Z,77.04
2023-04-28T19:54:09.402Z,77.21
2023-04-28T19:56:39.173Z,77.32
2023-04-28T19:59:07.555Z,77.86
2023-04-28T20:01:36.018Z,77.91
2023-04-28T20:04:04.647Z,77.15
2023-04-28T20:06:33.346Z,77.63
2023-04-28T20:09:02.513Z,76.89
2023-04-28T20:11:31.304Z,76.93
2023-04-28T20:14:01.057Z,76.88
2023-04-28T20:16:29.717Z,77.71
2023-04-28T20:18:58.165Z,77.46
2023-04-28T20:21:28.214Z,77.37
2023-04-28T20:23:56.625Z,77.72
2023-04-28T20:26:25.046Z,77.70
2023-04-28T20:28:54.283Z,78.24
2023-04-28T20:31:24.125Z,77.75
2023-04-28T20:33:52.886Z,77.55
2023-04-28T20:36:21.378Z,77.88
2023-04-28T20:38:49.883Z,77.49
2023-04-28T20:41:18.388Z,77.20
2023-04-28T20:43:46.988Z,76.71
2023-04-28T20:46:15.873Z,76.94
2023-04-28T20:48:45.777Z,76.46
2023-04-28T20:51:14.153Z,74.50
2023-04-28T20:53:42.973Z,74.63
2023-04-28T20:56:11.432Z,74.49
2023-04-28T20:58:42.444Z,73.52
2023-04-28T21:01:10.915Z,71.50
2023-04-28T21:03:39.602Z,69.71
2023-04-28T21:06:09.566Z,68.43
2023-04-28T21:08:38.627Z,68.80
2023-04-28T21:11:13.644Z,67.54
2023-04-28T21:13:42.874Z,68.48
2023-04-28T21:16:19.417Z,68.74
2023-04-28T21:18:49.811Z,67.94
2023-04-28T21:21:19.837Z,67.93
2023-04-28T21:23:48.606Z,67.40
2023-04-28T21:26:17.231Z,67.08
2023-04-28T21:28:45.769Z,67.15
2023-04-28T21:31:14.207Z,67.51
2023-04-28T21:33:42.544Z,66.82
2023-04-28T21:36:10.878Z,67.13
2023-04-28T21:38:40.607Z,66.86
2023-04-28T21:41:08.959Z,67.45
2023-04-28T21:43:37.410Z,66.76
2023-04-28T21:46:06.039Z,66.93
2023-04-28T21:48:34.417Z,67.71
2023-04-28T21:51:02.796Z,65.61
2023-04-28T21:53:31.419Z,66.49
2023-04-28T21:56:01.215Z,64.56
2023-04-28T21:58:29.546Z,65.37
2023-04-28T22:00:57.990Z,65.35
2023-04-28T22:03:27.229Z,65.52
2023-04-28T22:05:56.720Z,65.24
2023-04-28T22:08:25.722Z,65.83
2023-04-28T22:10:54.101Z,65.89
2023-04-28T22:13:23.754Z,66.02
2023-04-28T22:15:52.209Z,66.39
2023-04-28T22:18:20.660Z,66.86
2023-04-28T22:20:50.131Z,66.83
2023-04-28T22:23:18.477Z,65.84
2023-04-28T22:25:47.066Z,67.22
2023-04-28T22:28:15.437Z,67.04
2023-04-28T22:30:47.021Z,67.47
2023-04-28T22:33:15.504Z,68.26
2023-04-28T22:35:46.433Z,67.44
2023-04-28T22:38:14.774Z,67.96
2023-04-28T22:40:43.392Z,67.72
2023-04-28T22:43:11.838Z,67.12
2023-04-28T22:45:42.045Z,67.67
2023-04-28T22:48:12.136Z,68.05
2023-04-28T22:50:40.659Z,68.91
2023-04-28T22:53:09.430Z,68.28
2023-04-28T22:55:37.998Z,68.77
2023-04-28T22:58:07.110Z,68.53
2023-04-28T23:00:35.802Z,69.34
2023-04-28T23:03:05.088Z,68.96
2023-04-28T23:05:38.943Z,68.99
2023-04-28T23:08:07.376Z,69.34
2023-04-28T23:10:35.765Z,69.76
2023-04-28T23:13:04.125Z,69.68
2023-04-28T23:15:32.512Z,69.69
2023-04-28T23:18:00.931Z,69.16
2023-04-28T23:20:29.374Z,69.24
2023-04-28T23:22:59.479Z,69.64
2023-04-28T23:25:27.866Z,69.59
2023-04-28T23:27:56.291Z,70.35
2023-04-28T23:30:24.691Z,69.80
2023-04-28T23:32:53.193Z,70.29
2023-04-28T23:35:21.571Z,69.55
2023-04-28T23:37:50.286Z,69.54
2023-04-28T23:40:20.287Z,70.12
2023-04-28T23:42:48.627Z,70.27
2023-04-28T23:45:17.256Z,70.10
2023-04-28T23:47:45.698Z,70.45
2023-04-28T23:50:14.125Z,70.47
2023-04-28T23:52:43.932Z,69.79
2023-04-28T23:55:15.400Z,70.03
2023-04-28T23:57:45.189Z,70.06
